KAXA

Algona Municipal Airport

Algona, Iowa, USA
METAR KAXA 222135Z AUTO 05010KT 10SM CLR 15/06 A3024 RMK AO2 PWINO
Observed Flight Rules
Apr-22 @ 21:35 UTC (18 minutes ago) Visual Flight Rules
Wind Visibility Clouds
50° at 10 knots 10 miles
  • Clear skies
Temperatures Readings
Current 15°C / 59°F
Dewpoint 6°C / 43°F
Humidity 55%
Altimeter 30.24" Hg
Pressure 1024 hPa
Elevation 372
METAR KAXA 222135Z AUTO 05010KT 10SM CLR 15/06 A3024 RMK AO2 PWINO
Observed Flight Rules
Apr-22 @ 21:35 UTC
(18 minutes ago)
VFR
Wind Visibility
50° at 10 knots 10 miles
Clouds
  • Clear skies
Temperature Dewpoint
15°C / 59°F 6°C / 43°F
Humidity Altimeter Pressure
55% 30.24" Hg 1024 hPa